Time;durP1;ratioP1;P1;durP2;ratioP2;P2;SDS_P1;SDS_P2;PMS_P1;PMS_P2;Temp;Humidity;BMP_temperature;BMP_pressure;BME280_temperature;BME280_humidity;BME280_pressure;Samples;Min_cycle;Max_cycle;Signal;HPM_P1;HPM_P2
2022/07/07 00:02:12;;;;;;;13.30;6.93;;;19.40;82.10;;;;;;5036478;28;20018;-78
2022/07/07 00:04:38;;;;;;;11.48;7.80;;;19.40;82.30;;;;;;5026715;28;20091;-78
2022/07/07 00:07:04;;;;;;;12.88;8.07;;;19.40;82.40;;;;;;5014796;28;20048;-77
2022/07/07 00:09:30;;;;;;;10.75;8.07;;;19.40;82.50;;;;;;5033889;28;20022;-78
2022/07/07 00:11:57;;;;;;;11.75;7.50;;;19.40;82.60;;;;;;5027292;28;20018;-77
2022/07/07 00:14:23;;;;;;;12.82;7.75;;;19.40;82.60;;;;;;5014869;28;20034;-77
2022/07/07 00:16:49;;;;;;;11.60;7.68;;;19.40;82.40;;;;;;5020843;28;20105;-78
2022/07/07 00:19:14;;;;;;;10.73;6.93;;;19.40;82.20;;;;;;5024117;28;20018;-78
2022/07/07 00:21:40;;;;;;;12.00;8.07;;;19.40;82.70;;;;;;5024149;28;20033;-77
2022/07/07 00:24:08;;;;;;;11.75;8.18;;;19.40;82.10;;;;;;5027274;28;20076;-78
2022/07/07 00:26:34;;;;;;;10.25;7.75;;;19.40;82.00;;;;;;5040370;28;20159;-78
2022/07/07 00:29:00;;;;;;;9.13;6.20;;;19.40;82.40;;;;;;5008913;28;20425;-76
2022/07/07 00:31:26;;;;;;;9.30;6.53;;;19.40;82.70;;;;;;5018834;28;20025;-77
2022/07/07 00:33:52;;;;;;;11.43;8.40;;;19.40;82.40;;;;;;5009917;28;20038;-76
2022/07/07 00:36:18;;;;;;;13.23;8.35;;;19.40;82.90;;;;;;5016586;28;20240;-77
2022/07/07 00:38:43;;;;;;;11.43;7.03;;;19.40;83.00;;;;;;5013013;28;20044;-78
2022/07/07 00:41:09;;;;;;;9.95;5.38;;;19.40;82.90;;;;;;5023832;28;20033;-76
2022/07/07 00:43:36;;;;;;;10.75;7.53;;;19.40;82.30;;;;;;5004340;28;20014;-77
2022/07/07 00:46:03;;;;;;;11.90;7.68;;;19.40;83.20;;;;;;5031302;28;20057;-77
2022/07/07 00:48:31;;;;;;;16.08;8.55;;;19.40;83.50;;;;;;5023645;28;20043;-76
2022/07/07 00:50:57;;;;;;;14.43;7.22;;;19.40;83.30;;;;;;5014394;28;20022;-77
2022/07/07 00:53:23;;;;;;;12.05;7.75;;;19.40;83.70;;;;;;5037911;28;20050;-78
2022/07/07 00:55:49;;;;;;;11.73;8.02;;;19.50;84.10;;;;;;5035745;28;20030;-77
2022/07/07 00:58:14;;;;;;;10.55;6.57;;;19.40;84.00;;;;;;5005459;28;20117;-77
2022/07/07 01:00:41;;;;;;;12.35;7.25;;;19.50;84.10;;;;;;5012230;28;20017;-78
2022/07/07 01:03:09;;;;;;;11.68;8.15;;;19.50;84.10;;;;;;5045965;28;20036;-77
2022/07/07 01:05:36;;;;;;;11.88;7.97;;;19.40;84.90;;;;;;5007514;28;20055;-77
2022/07/07 01:08:04;;;;;;;14.45;8.00;;;19.40;84.70;;;;;;5023592;28;20018;-78
2022/07/07 01:10:30;;;;;;;9.73;6.35;;;19.40;84.50;;;;;;5006119;28;20030;-78
2022/07/07 01:13:02;;;;;;;14.18;8.68;;;19.40;85.10;;;;;;5004495;28;20034;-79
2022/07/07 01:15:28;;;;;;;9.63;6.18;;;19.40;85.80;;;;;;5031912;28;20029;-78
2022/07/07 01:17:54;;;;;;;9.15;5.93;;;19.40;83.40;;;;;;5023555;28;20032;-77
2022/07/07 01:20:20;;;;;;;12.30;7.97;;;19.40;84.10;;;;;;5023378;28;20029;-78
2022/07/07 01:22:52;;;;;;;10.50;7.28;;;19.40;85.20;;;;;;5037273;28;20053;-78
2022/07/07 01:25:18;;;;;;;16.27;9.13;;;19.40;85.50;;;;;;5040174;28;20055;-79
2022/07/07 01:27:44;;;;;;;15.10;7.38;;;19.40;86.80;;;;;;5041772;28;20036;-80
2022/07/07 01:30:11;;;;;;;11.13;8.32;;;19.50;86.80;;;;;;5024574;28;20018;-78
2022/07/07 01:32:38;;;;;;;11.73;7.75;;;19.50;85.70;;;;;;5023786;28;20029;-77
2022/07/07 01:35:05;;;;;;;13.65;7.22;;;19.50;86.50;;;;;;5041112;28;20594;-77
2022/07/07 01:37:34;;;;;;;10.13;7.05;;;19.50;86.60;;;;;;5023610;28;20076;-78
2022/07/07 01:40:00;;;;;;;12.40;7.43;;;19.50;86.10;;;;;;5010348;28;20025;-77
2022/07/07 01:42:26;;;;;;;11.18;7.72;;;19.50;86.90;;;;;;5013139;28;20058;-77
2022/07/07 01:44:52;;;;;;;15.27;8.27;;;19.60;86.60;;;;;;5024654;28;20032;-77
2022/07/07 01:47:20;;;;;;;7.93;5.50;;;19.60;86.00;;;;;;5033183;28;20112;-78
2022/07/07 01:49:46;;;;;;;11.25;6.50;;;19.60;85.00;;;;;;5030565;28;20153;-78
2022/07/07 01:52:12;;;;;;;14.38;7.97;;;19.60;86.40;;;;;;5027342;28;20079;-78
2022/07/07 01:54:38;;;;;;;11.20;7.13;;;19.60;86.80;;;;;;5031714;28;20041;-76
2022/07/07 01:57:07;;;;;;;11.20;6.15;;;19.50;87.20;;;;;;5026579;28;20026;-79
2022/07/07 01:59:37;;;;;;;10.50;6.40;;;19.50;87.00;;;;;;5031720;28;20037;-77
2022/07/07 02:02:03;;;;;;;10.85;6.25;;;19.60;86.80;;;;;;5029773;28;20044;-78
2022/07/07 02:04:29;;;;;;;9.60;6.05;;;19.60;86.60;;;;;;5013142;28;20026;-77
2022/07/07 02:06:55;;;;;;;7.80;4.90;;;19.60;86.30;;;;;;5034708;28;20026;-78
2022/07/07 02:09:20;;;;;;;14.98;5.35;;;19.60;86.00;;;;;;5027900;28;20014;-77
2022/07/07 02:11:47;;;;;;;9.32;4.38;;;19.60;86.10;;;;;;5042277;28;20100;-80
2022/07/07 02:14:13;;;;;;;7.07;3.90;;;19.60;85.60;;;;;;5043429;28;20072;-77
2022/07/07 02:16:38;;;;;;;11.55;5.30;;;19.60;85.30;;;;;;5027654;28;20018;-78
2022/07/07 02:19:06;;;;;;;6.53;3.58;;;19.60;85.00;;;;;;5010730;28;20365;-78
2022/07/07 02:21:33;;;;;;;6.97;3.35;;;19.60;84.80;;;;;;5026687;28;20033;-78
2022/07/07 02:23:59;;;;;;;8.13;3.80;;;19.60;84.50;;;;;;5035562;28;20037;-78
2022/07/07 02:26:25;;;;;;;11.60;3.17;;;19.70;85.20;;;;;;5037738;28;20026;-78
2022/07/07 02:28:53;;;;;;;6.53;3.25;;;19.70;84.30;;;;;;5032565;28;20032;-78
2022/07/07 02:31:19;;;;;;;6.03;3.13;;;19.60;85.30;;;;;;5020566;28;20041;-79
2022/07/07 02:33:45;;;;;;;8.93;3.92;;;19.50;85.70;;;;;;5027674;28;20124;-79
2022/07/07 02:36:11;;;;;;;9.73;3.13;;;19.40;86.70;;;;;;5018357;28;20060;-79
2022/07/07 02:38:38;;;;;;;6.55;3.35;;;19.30;86.40;;;;;;5004020;28;20034;-78
2022/07/07 02:41:09;;;;;;;10.25;4.10;;;19.30;87.50;;;;;;5018301;28;20018;-78
2022/07/07 02:43:41;;;;;;;9.80;3.70;;;19.20;88.30;;;;;;5035147;28;20026;-77
2022/07/07 02:46:07;;;;;;;6.80;2.80;;;19.20;89.00;;;;;;5046840;28;20025;-76
2022/07/07 02:48:42;;;;;;;7.05;2.92;;;19.20;88.80;;;;;;5014337;28;20013;-76
2022/07/07 02:51:08;;;;;;;7.55;2.63;;;19.10;88.00;;;;;;5027041;28;20022;-77
2022/07/07 02:53:37;;;;;;;3.97;2.20;;;19.00;88.10;;;;;;5004590;28;20612;-75
2022/07/07 02:56:13;;;;;;;;;;;;;;;;;;;;;
2022/07/07 02:59:04;;;;;;;7.93;3.25;;;18.70;90.20;;;;;;5032686;28;20110;-75
2022/07/07 03:01:29;;;;;;;8.02;2.83;;;18.70;90.50;;;;;;5006653;28;20088;-76
2022/07/07 03:03:58;;;;;;;4.13;2.25;;;18.70;90.80;;;;;;5030145;28;20021;-75
2022/07/07 03:06:37;;;;;;;5.32;2.72;;;18.60;90.80;;;;;;5016172;28;20012;-77
2022/07/07 03:09:17;;;;;;;5.25;2.90;;;18.50;90.80;;;;;;5043194;28;20066;-77
2022/07/07 03:11:44;;;;;;;6.65;2.55;;;18.50;90.70;;;;;;5050546;28;20039;-76
2022/07/07 03:14:57;;;;;;;5.70;2.85;;;18.40;91.10;;;;;;5027840;28;20029;-76
2022/07/07 03:17:28;;;;;;;7.70;3.08;;;18.30;91.20;;;;;;5033828;28;20021;-76
2022/07/07 03:20:30;;;;;;;6.25;2.88;;;18.30;91.30;;;;;;5032677;28;20060;-79
2022/07/07 03:23:05;;;;;;;5.85;3.17;;;18.20;91.30;;;;;;5054369;28;20029;-77
2022/07/07 03:25:49;;;;;;;6.55;2.88;;;18.20;91.30;;;;;;5042165;28;20022;-77
2022/07/07 03:28:38;;;;;;;4.95;2.60;;;18.20;91.10;;;;;;5014612;28;20021;-78
2022/07/07 03:31:18;;;;;;;7.40;3.53;;;18.20;91.50;;;;;;5014774;28;20021;-77
2022/07/07 03:33:58;;;;;;;;;;;;;;;;;;;;;
2022/07/07 03:36:38;;;;;;;7.57;3.65;;;18.20;91.10;;;;;;5030563;28;20060;-77
2022/07/07 03:39:05;;;;;;;5.80;3.50;;;18.20;91.80;;;;;;5010499;28;20037;-76
2022/07/07 03:41:35;;;;;;;6.30;3.40;;;18.10;91.90;;;;;;5036632;28;20018;-76
2022/07/07 03:44:01;;;;;;;6.32;3.63;;;18.10;92.00;;;;;;5033200;28;20017;-77
2022/07/07 03:46:38;;;;;;;5.20;2.70;;;18.10;92.20;;;;;;5039633;28;20069;-77
2022/07/07 03:49:04;;;;;;;7.38;3.47;;;18.10;91.90;;;;;;5039370;28;20028;-78
2022/07/07 03:51:34;;;;;;;6.00;2.75;;;18.10;92.30;;;;;;5028911;28;20032;-77
2022/07/07 03:54:24;;;;;;;5.05;3.50;;;18.10;92.20;;;;;;5021967;28;20133;-77
2022/07/07 03:56:53;;;;;;;7.97;4.03;;;18.10;92.40;;;;;;5012339;28;20030;-77
2022/07/07 03:59:22;;;;;;;5.57;3.60;;;18.10;92.30;;;;;;5002591;28;20037;-77
2022/07/07 04:01:49;;;;;;;7.95;4.53;;;18.10;92.50;;;;;;5007581;28;20014;-77
2022/07/07 04:04:36;;;;;;;8.93;4.10;;;18.10;92.70;;;;;;5004438;28;20007;-77
2022/07/07 04:07:04;;;;;;;9.00;3.95;;;18.00;92.70;;;;;;5014746;28;20026;-76
2022/07/07 04:09:34;;;;;;;7.25;3.95;;;18.00;92.90;;;;;;5023080;28;20026;-77
2022/07/07 04:12:04;;;;;;;5.40;3.25;;;17.90;92.80;;;;;;5022973;28;20022;-76
2022/07/07 04:14:42;;;;;;;6.03;2.90;;;18.00;92.80;;;;;;5023797;28;20026;-78
2022/07/07 04:17:09;;;;;;;6.07;3.80;;;18.00;92.80;;;;;;5006406;28;20050;-78
2022/07/07 04:19:39;;;;;;;8.88;4.05;;;18.00;92.80;;;;;;5003443;28;20030;-78
2022/07/07 04:22:05;;;;;;;9.98;4.80;;;18.00;92.90;;;;;;5005218;28;20477;-75
2022/07/07 04:24:40;;;;;;;6.32;2.65;;;17.90;93.00;;;;;;5019928;28;20078;-76
2022/07/07 04:27:08;;;;;;;6.25;3.70;;;17.90;92.40;;;;;;5006929;28;20086;-77
2022/07/07 04:29:35;;;;;;;5.57;2.90;;;17.90;93.10;;;;;;5015643;28;20114;-76
2022/07/07 04:32:01;;;;;;;5.22;2.50;;;17.80;92.70;;;;;;5008535;28;20026;-76
2022/07/07 04:34:27;;;;;;;8.13;2.63;;;17.80;93.00;;;;;;5012663;28;20038;-77
2022/07/07 04:36:53;;;;;;;6.43;2.38;;;17.80;93.00;;;;;;5006304;28;20393;-77
2022/07/07 04:39:24;;;;;;;4.03;1.92;;;17.80;92.90;;;;;;5009584;28;20057;-77
2022/07/07 04:41:50;;;;;;;8.27;2.38;;;17.80;92.60;;;;;;5006382;28;20472;-76
2022/07/07 04:44:16;;;;;;;4.80;1.85;;;17.70;92.90;;;;;;5010488;28;20030;-76
2022/07/07 04:46:42;;;;;;;8.32;2.35;;;17.80;92.90;;;;;;5016294;28;20046;-74
2022/07/07 04:49:08;;;;;;;5.18;2.28;;;17.80;92.70;;;;;;5013430;28;20026;-76
2022/07/07 04:51:34;;;;;;;5.40;2.08;;;17.80;92.90;;;;;;5025613;28;20022;-76
2022/07/07 04:53:59;;;;;;;8.93;2.63;;;17.80;93.00;;;;;;5027703;28;20053;-77
2022/07/07 04:56:25;;;;;;;5.57;2.40;;;17.80;92.90;;;;;;5035687;28;20025;-77
2022/07/07 04:58:51;;;;;;;5.13;2.22;;;17.90;92.00;;;;;;5018652;28;20022;-77
2022/07/07 05:01:18;;;;;;;7.22;2.67;;;17.90;92.00;;;;;;5015527;28;20096;-77
2022/07/07 05:03:43;;;;;;;5.85;2.22;;;18.00;92.40;;;;;;5028837;28;20026;-78
2022/07/07 05:06:10;;;;;;;8.45;2.55;;;18.00;92.50;;;;;;5040534;28;20028;-78
2022/07/07 05:08:39;;;;;;;6.53;2.35;;;18.00;92.50;;;;;;5027366;28;20029;-77
2022/07/07 05:11:05;;;;;;;7.78;1.38;;;18.00;92.40;;;;;;5039250;28;20040;-76
2022/07/07 05:13:31;;;;;;;9.48;2.47;;;18.10;91.60;;;;;;5042000;28;20025;-76
2022/07/07 05:15:56;;;;;;;6.30;2.25;;;18.10;92.40;;;;;;5021548;28;20468;-77
2022/07/07 05:18:23;;;;;;;8.15;2.08;;;18.10;92.30;;;;;;5029863;28;20060;-77
2022/07/07 05:20:51;;;;;;;4.60;1.40;;;18.10;92.40;;;;;;5036449;28;20317;-77
2022/07/07 05:23:18;;;;;;;5.70;1.73;;;18.10;92.10;;;;;;5042212;28;20032;-78
2022/07/07 05:25:43;;;;;;;4.90;1.45;;;18.20;92.30;;;;;;5042616;28;20026;-77
2022/07/07 05:28:15;;;;;;;7.95;1.50;;;18.20;92.00;;;;;;5034334;28;20080;-77
2022/07/07 05:30:41;;;;;;;3.67;1.25;;;18.20;90.80;;;;;;5041644;28;20056;-78
2022/07/07 05:33:07;;;;;;;6.47;1.40;;;18.10;91.20;;;;;;5019749;28;20041;-76
2022/07/07 05:35:36;;;;;;;3.40;0.93;;;18.10;91.70;;;;;;5032387;28;20037;-75
2022/07/07 05:38:02;;;;;;;4.97;1.15;;;18.10;90.20;;;;;;5014404;28;20048;-76
2022/07/07 05:40:28;;;;;;;7.95;1.20;;;18.00;91.00;;;;;;5028136;28;20109;-75
2022/07/07 05:42:54;;;;;;;6.18;1.45;;;18.00;91.10;;;;;;5035889;28;20026;-76
2022/07/07 05:45:20;;;;;;;10.02;1.60;;;18.10;90.70;;;;;;5005060;28;20079;-75
2022/07/07 05:47:46;;;;;;;7.75;1.77;;;18.00;91.10;;;;;;5036024;28;20024;-77
2022/07/07 05:50:11;;;;;;;12.63;1.90;;;18.10;90.90;;;;;;5024474;28;20025;-77
2022/07/07 05:52:37;;;;;;;7.95;1.45;;;18.10;91.00;;;;;;5037123;28;20045;-77
2022/07/07 05:55:03;;;;;;;9.57;2.33;;;18.20;90.30;;;;;;5006387;28;20396;-77
2022/07/07 05:57:30;;;;;;;9.43;2.00;;;18.20;90.60;;;;;;5028546;28;20053;-78
2022/07/07 05:59:56;;;;;;;11.30;1.90;;;18.20;90.40;;;;;;5010887;28;20542;-77
2022/07/07 06:02:22;;;;;;;6.15;1.33;;;18.20;90.40;;;;;;5031233;28;20104;-77
2022/07/07 06:04:48;;;;;;;9.88;1.90;;;18.30;90.00;;;;;;5027579;28;20034;-79
2022/07/07 06:07:15;;;;;;;11.15;1.70;;;18.30;88.60;;;;;;5027303;28;20032;-78
2022/07/07 06:09:41;;;;;;;7.55;1.60;;;18.40;89.90;;;;;;5034489;28;20038;-79
2022/07/07 06:12:07;;;;;;;13.00;2.20;;;18.40;89.70;;;;;;5029680;28;20021;-77
2022/07/07 06:14:34;;;;;;;8.50;2.42;;;18.40;89.30;;;;;;5031278;28;20041;-77
2022/07/07 06:16:59;;;;;;;9.63;1.90;;;18.30;88.60;;;;;;5029744;28;20572;-78
2022/07/07 06:19:25;;;;;;;9.27;1.80;;;18.30;89.60;;;;;;5029545;28;20085;-77
2022/07/07 06:21:54;;;;;;;11.90;2.33;;;18.40;87.20;;;;;;5013974;28;20029;-78
2022/07/07 06:24:20;;;;;;;9.93;1.55;;;18.30;87.10;;;;;;5050274;28;20083;-78
2022/07/07 06:26:46;;;;;;;8.73;1.83;;;18.20;86.30;;;;;;5045077;28;20030;-79
2022/07/07 06:29:17;;;;;;;7.50;1.52;;;18.10;86.70;;;;;;5031168;28;20030;-79
2022/07/07 06:31:42;;;;;;;7.32;1.60;;;18.00;87.20;;;;;;5008377;28;20045;-78
2022/07/07 06:34:08;;;;;;;6.82;1.30;;;18.00;86.20;;;;;;5002758;28;20034;-78
2022/07/07 06:36:34;;;;;;;5.30;1.15;;;18.00;87.10;;;;;;5038645;28;20025;-77
2022/07/07 06:39:05;;;;;;;7.72;2.15;;;18.20;84.80;;;;;;5042166;28;20059;-78
2022/07/07 06:41:35;;;;;;;8.27;1.23;;;18.20;87.40;;;;;;5039717;28;20017;-78
2022/07/07 06:44:02;;;;;;;7.85;1.50;;;18.30;86.30;;;;;;5024782;28;20030;-78
2022/07/07 06:46:27;;;;;;;12.50;2.75;;;18.30;88.30;;;;;;4991535;28;20061;-76
2022/07/07 06:48:53;;;;;;;8.73;1.40;;;18.30;88.20;;;;;;5042273;28;20037;-78
2022/07/07 06:51:19;;;;;;;11.73;2.08;;;18.40;86.90;;;;;;5018974;28;20026;-78
2022/07/07 06:53:45;;;;;;;9.23;1.77;;;18.50;87.70;;;;;;5022963;28;20137;-77
2022/07/07 06:56:13;;;;;;;8.60;1.58;;;18.50;87.70;;;;;;5034172;28;20045;-78
2022/07/07 06:58:38;;;;;;;8.55;1.70;;;18.60;88.80;;;;;;5042972;28;20025;-79
2022/07/07 07:01:04;;;;;;;5.57;1.27;;;18.80;86.20;;;;;;5039665;28;20545;-79
2022/07/07 07:03:30;;;;;;;8.48;1.60;;;18.90;85.90;;;;;;5045196;28;20021;-78
2022/07/07 07:05:56;;;;;;;6.60;0.90;;;19.00;85.60;;;;;;5021298;28;20014;-79
2022/07/07 07:08:22;;;;;;;9.45;1.73;;;19.00;84.90;;;;;;5026755;28;20018;-79
2022/07/07 07:10:47;;;;;;;6.45;1.30;;;19.10;85.80;;;;;;5029093;28;20030;-78
2022/07/07 07:13:13;;;;;;;5.55;1.17;;;19.00;84.40;;;;;;5026982;28;20044;-79
2022/07/07 07:15:39;;;;;;;8.80;2.15;;;19.00;83.60;;;;;;5033058;28;20025;-78
2022/07/07 07:18:06;;;;;;;11.10;2.10;;;19.00;85.20;;;;;;5017742;28;20032;-78
2022/07/07 07:20:32;;;;;;;13.10;2.03;;;19.00;84.90;;;;;;5034675;28;20072;-76
2022/07/07 07:22:58;;;;;;;9.57;1.52;;;18.90;85.70;;;;;;5032545;28;20423;-78
2022/07/07 07:25:23;;;;;;;9.23;1.50;;;19.00;82.10;;;;;;5033996;28;20018;-79
2022/07/07 07:27:49;;;;;;;6.72;1.10;;;18.90;85.70;;;;;;5029252;28;20393;-77
2022/07/07 07:30:15;;;;;;;7.10;1.40;;;18.80;85.80;;;;;;5039072;28;20025;-80
2022/07/07 07:32:42;;;;;;;6.55;1.30;;;18.70;86.20;;;;;;5034012;28;20022;-80
2022/07/07 07:35:08;;;;;;;6.13;1.00;;;18.70;85.20;;;;;;5022872;28;20108;-80
2022/07/07 07:37:33;;;;;;;6.07;1.17;;;18.80;85.70;;;;;;5032236;28;20026;-81
2022/07/07 07:39:59;;;;;;;6.03;1.13;;;18.90;87.30;;;;;;5019822;28;20025;-79
2022/07/07 07:42:24;;;;;;;5.68;1.20;;;19.10;84.50;;;;;;5015599;28;20599;-79
2022/07/07 07:47:35;;;;;;;4.55;0.90;;;19.30;83.30;;;;;;5022062;28;20084;-80
2022/07/07 07:50:01;;;;;;;4.32;1.08;;;19.10;81.80;;;;;;5004071;28;20732;-79
2022/07/07 07:52:26;;;;;;;8.75;1.13;;;19.00;82.90;;;;;;5015220;28;20073;-79
2022/07/07 07:54:52;;;;;;;5.40;0.90;;;18.90;84.70;;;;;;5033513;28;20065;-79
2022/07/07 07:57:18;;;;;;;4.88;0.90;;;18.80;86.30;;;;;;5033268;28;20499;-79
2022/07/07 07:59:44;;;;;;;3.60;1.10;;;18.70;87.10;;;;;;5017628;28;20022;-79
2022/07/07 08:02:10;;;;;;;6.13;1.13;;;18.80;87.80;;;;;;5014958;28;20049;-78
2022/07/07 08:04:35;;;;;;;7.13;1.10;;;18.90;87.00;;;;;;5021716;28;20480;-78
2022/07/07 08:07:01;;;;;;;5.65;1.02;;;18.90;88.00;;;;;;5024227;28;20029;-79
2022/07/07 08:09:28;;;;;;;7.07;1.00;;;18.90;88.10;;;;;;5040668;28;20483;-78
2022/07/07 08:11:54;;;;;;;11.15;2.65;;;18.60;88.10;;;;;;5036384;28;20029;-78
2022/07/07 08:14:21;;;;;;;5.82;1.60;;;18.60;88.60;;;;;;5019400;28;20124;-78
2022/07/07 08:16:49;;;;;;;7.75;1.67;;;18.50;89.80;;;;;;5017215;28;20029;-79
2022/07/07 08:19:19;;;;;;;7.35;1.73;;;18.50;88.90;;;;;;5040120;28;20060;-78
2022/07/07 08:21:50;;;;;;;14.77;2.72;;;18.50;90.10;;;;;;5048348;28;20024;-76
2022/07/07 08:24:17;;;;;;;8.60;2.17;;;18.50;90.00;;;;;;5033275;28;20033;-77
2022/07/07 08:26:43;;;;;;;6.50;1.40;;;18.70;89.90;;;;;;5015004;28;20094;-77
2022/07/07 08:29:09;;;;;;;6.85;1.60;;;18.90;90.60;;;;;;5016691;28;20032;-77
2022/07/07 08:31:35;;;;;;;7.57;1.45;;;19.10;89.50;;;;;;5023029;28;20006;-76
2022/07/07 08:34:02;;;;;;;7.75;1.45;;;19.30;89.90;;;;;;5037617;28;20018;-78
2022/07/07 08:36:30;;;;;;;10.27;1.67;;;19.50;85.80;;;;;;5034849;28;20022;-78
2022/07/07 08:38:56;;;;;;;7.22;1.45;;;19.60;86.50;;;;;;5043453;28;20010;-77
2022/07/07 08:41:23;;;;;;;6.88;1.30;;;19.60;86.10;;;;;;5037726;28;20479;-77
2022/07/07 08:43:49;;;;;;;6.03;1.30;;;19.40;84.40;;;;;;5047677;28;20053;-76
2022/07/07 08:46:19;;;;;;;6.97;1.30;;;19.20;86.80;;;;;;5029011;28;20017;-79
2022/07/07 08:48:45;;;;;;;7.43;1.27;;;19.10;87.60;;;;;;5031215;28;20112;-78
2022/07/07 08:51:11;;;;;;;7.20;1.20;;;19.10;87.40;;;;;;5033488;28;20128;-79
2022/07/07 08:53:37;;;;;;;4.68;0.85;;;19.30;90.50;;;;;;5049259;28;20053;-77
2022/07/07 08:56:06;;;;;;;7.00;1.20;;;19.50;86.50;;;;;;5031310;28;20033;-79
2022/07/07 08:58:37;;;;;;;5.35;0.98;;;19.70;86.40;;;;;;5047178;28;20030;-79
2022/07/07 09:01:04;;;;;;;5.90;1.25;;;20.00;85.90;;;;;;5031913;28;20026;-80
2022/07/07 09:03:30;;;;;;;6.65;1.30;;;20.10;84.90;;;;;;5040308;28;20021;-80
2022/07/07 09:05:56;;;;;;;5.57;1.05;;;20.30;83.80;;;;;;5038157;28;20445;-81
2022/07/07 09:08:24;;;;;;;6.60;0.90;;;20.50;83.60;;;;;;5004311;28;20399;-80
2022/07/07 09:10:49;;;;;;;4.60;1.20;;;20.50;82.10;;;;;;5022657;28;20021;-80
2022/07/07 09:13:30;;;;;;;5.25;1.13;;;20.40;81.40;;;;;;5030976;28;20396;-78
2022/07/07 09:16:03;;;;;;;;;;;20.20;81.00;;;;;;5012070;28;20427;-79
2022/07/07 09:18:33;;;;;;;6.15;0.90;;;19.90;81.30;;;;;;5030085;28;19909;-79
2022/07/07 09:20:59;;;;;;;4.93;0.70;;;19.70;82.20;;;;;;5033756;28;20117;-78
2022/07/07 09:23:31;;;;;;;6.10;0.73;;;19.60;82.90;;;;;;5024690;28;20096;-80
2022/07/07 09:25:59;;;;;;;4.70;0.70;;;19.60;85.10;;;;;;5022689;28;20030;-79
2022/07/07 09:28:26;;;;;;;2.83;0.60;;;19.80;84.50;;;;;;5012255;28;20018;-80
2022/07/07 09:30:53;;;;;;;5.45;0.55;;;20.20;83.60;;;;;;5047020;28;20026;-79
2022/07/07 09:33:25;;;;;;;2.85;0.70;;;20.50;82.50;;;;;;5029902;28;20053;-79
2022/07/07 09:38:42;;;;;;;3.22;0.77;;;20.80;79.80;;;;;;5033138;28;20072;-80
2022/07/07 09:41:13;;;;;;;4.07;0.98;;;21.10;78.20;;;;;;5025597;28;20052;-80
2022/07/07 09:43:52;;;;;;;5.10;0.75;;;21.30;76.90;;;;;;5029491;28;20155;-81
2022/07/07 09:46:25;;;;;;;2.70;0.60;;;21.20;76.90;;;;;;5033470;28;20022;-81
2022/07/07 09:48:56;;;;;;;3.05;0.57;;;21.00;76.10;;;;;;5027917;28;20025;-80
2022/07/07 09:51:25;;;;;;;3.47;0.70;;;20.70;76.80;;;;;;5022241;28;20438;-81
2022/07/07 09:54:07;;;;;;;2.40;0.60;;;20.50;77.40;;;;;;5023520;28;20412;-81
2022/07/07 09:56:42;;;;;;;3.28;0.50;;;20.20;79.70;;;;;;5029542;28;20060;-80
2022/07/07 09:59:10;;;;;;;3.20;0.70;;;20.10;80.30;;;;;;5044784;28;20026;-80
2022/07/07 10:01:39;;;;;;;5.65;1.02;;;20.20;82.80;;;;;;5050387;28;20013;-79
2022/07/07 10:04:10;;;;;;;3.08;0.70;;;20.30;81.10;;;;;;5034261;28;20551;-77
2022/07/07 10:06:38;;;;;;;3.58;1.08;;;20.40;80.50;;;;;;5020529;28;20030;-78
2022/07/07 10:09:09;;;;;;;2.53;0.57;;;20.50;80.80;;;;;;5037499;28;20029;-80
2022/07/07 10:11:40;;;;;;;8.30;0.70;;;20.40;78.80;;;;;;5045664;28;20124;-77
2022/07/07 10:14:16;;;;;;;4.70;0.80;;;20.40;80.50;;;;;;5023251;28;20034;-79
2022/07/07 10:16:43;;;;;;;4.15;1.00;;;20.50;80.40;;;;;;5017117;28;20044;-77
2022/07/07 10:19:11;;;;;;;6.20;1.15;;;20.40;79.80;;;;;;5004686;28;20400;-77
2022/07/07 10:21:39;;;;;;;5.50;0.82;;;20.40;80.50;;;;;;5011263;28;20038;-78
2022/07/07 10:24:05;;;;;;;5.85;1.13;;;20.50;81.20;;;;;;4996342;28;20515;-79
2022/07/07 10:26:42;;;;;;;3.92;1.08;;;20.50;79.60;;;;;;5015029;28;20558;-79
2022/07/07 10:29:09;;;;;;;3.88;1.15;;;20.60;78.50;;;;;;5038837;28;20041;-80
2022/07/07 10:31:37;;;;;;;4.20;0.80;;;20.60;78.80;;;;;;5038520;28;20084;-81
2022/07/07 10:34:06;;;;;;;4.30;1.13;;;20.50;79.30;;;;;;5024861;28;20463;-81
2022/07/07 10:36:48;;;;;;;2.65;0.90;;;20.40;79.50;;;;;;5034261;28;20021;-79
2022/07/07 10:39:14;;;;;;;6.03;1.20;;;20.20;80.40;;;;;;5022940;28;20025;-78
2022/07/07 10:41:41;;;;;;;4.80;0.80;;;20.10;81.30;;;;;;5013818;28;20343;-78
2022/07/07 10:44:09;;;;;;;6.65;1.55;;;20.10;83.00;;;;;;5019505;28;20501;-78
2022/07/07 10:46:36;;;;;;;4.82;1.10;;;20.10;84.30;;;;;;5030171;28;20033;-78
2022/07/07 10:49:09;;;;;;;3.90;1.00;;;20.20;83.70;;;;;;5023092;28;20101;-77
2022/07/07 10:51:54;;;;;;;6.60;1.55;;;20.30;83.50;;;;;;5026303;28;20128;-78
2022/07/07 10:54:38;;;;;;;5.13;1.20;;;20.30;82.30;;;;;;5001413;28;20049;-79
2022/07/07 10:57:05;;;;;;;5.20;1.10;;;20.50;81.90;;;;;;5010025;28;20030;-78
2022/07/07 10:59:56;;;;;;;5.00;1.20;;;20.60;79.90;;;;;;5003298;28;20023;-79
2022/07/07 11:02:36;;;;;;;7.63;1.23;;;21.00;79.90;;;;;;5012085;28;20014;-79
2022/07/07 11:05:10;;;;;;;8.57;1.15;;;21.50;78.20;;;;;;5003319;28;20030;-79
2022/07/07 11:07:36;;;;;;;4.97;0.90;;;21.70;76.40;;;;;;4999109;28;20029;-79
2022/07/07 11:10:13;;;;;;;4.70;1.55;;;21.90;76.50;;;;;;5008517;28;20030;-79
2022/07/07 11:12:44;;;;;;;2.92;0.60;;;21.80;75.80;;;;;;4993362;28;20425;-80
2022/07/07 11:15:22;;;;;;;6.20;1.08;;;21.70;75.00;;;;;;4995388;28;20125;-78
2022/07/07 11:17:53;;;;;;;5.38;1.30;;;21.40;76.10;;;;;;5006800;28;20829;-78
2022/07/07 11:20:30;;;;;;;4.10;1.08;;;21.20;77.60;;;;;;5000069;28;20080;-78
2022/07/07 11:23:07;;;;;;;6.03;1.42;;;21.00;80.00;;;;;;5007248;28;20018;-79
2022/07/07 11:25:34;;;;;;;4.20;1.05;;;20.70;81.20;;;;;;5000803;28;20010;-79
2022/07/07 11:28:00;;;;;;;6.05;1.40;;;20.60;83.60;;;;;;5007362;28;20107;-78
2022/07/07 11:30:26;;;;;;;4.07;0.95;;;20.80;84.00;;;;;;5002645;28;20551;-79
2022/07/07 11:32:57;;;;;;;5.05;1.00;;;21.10;80.30;;;;;;4994057;28;20030;-77
2022/07/07 11:35:23;;;;;;;6.78;1.17;;;21.10;81.80;;;;;;4996967;28;20136;-78
2022/07/07 11:37:48;;;;;;;3.83;1.23;;;21.10;81.40;;;;;;4994944;28;20224;-78
2022/07/07 11:40:14;;;;;;;3.38;1.00;;;20.90;79.20;;;;;;4993224;28;20042;-79
2022/07/07 11:42:43;;;;;;;5.05;1.33;;;20.80;79.00;;;;;;5000763;28;20025;-79
2022/07/07 11:45:21;;;;;;;3.92;1.20;;;20.70;78.50;;;;;;4993259;28;20022;-80
2022/07/07 11:47:48;;;;;;;3.60;0.77;;;20.50;78.70;;;;;;4970138;28;20038;-80
2022/07/07 11:50:14;;;;;;;2.60;0.77;;;20.50;80.90;;;;;;4976385;28;20119;-80
2022/07/07 11:52:54;;;;;;;2.80;0.85;;;20.60;79.50;;;;;;5011723;28;20104;-80
2022/07/07 11:55:21;;;;;;;3.70;0.90;;;20.50;79.90;;;;;;5029900;28;20492;-79
2022/07/07 11:58:05;;;;;;;6.13;1.20;;;20.50;81.10;;;;;;5021333;28;20045;-78
2022/07/07 12:00:35;;;;;;;4.50;1.42;;;20.50;81.40;;;;;;5010462;28;20013;-78
2022/07/07 12:03:04;;;;;;;7.15;1.75;;;20.40;80.60;;;;;;5021423;28;20066;-78
2022/07/07 12:05:38;;;;;;;5.45;1.63;;;20.30;80.90;;;;;;5029858;28;20022;-78
2022/07/07 12:08:08;;;;;;;3.47;1.42;;;20.40;81.70;;;;;;5028367;28;20448;-79
2022/07/07 12:10:51;;;;;;;4.18;1.95;;;20.60;81.60;;;;;;5027463;28;20105;-78
2022/07/07 12:13:17;;;;;;;5.38;1.55;;;20.70;80.40;;;;;;5018740;28;20080;-77
2022/07/07 12:15:49;;;;;;;3.30;1.10;;;20.80;78.10;;;;;;5008834;28;20026;-77
2022/07/07 12:18:40;;;;;;;5.30;1.35;;;20.80;78.10;;;;;;5020548;28;20014;-78
2022/07/07 12:21:13;;;;;;;3.83;1.08;;;20.80;77.70;;;;;;5010651;28;20396;-78
2022/07/07 12:23:44;;;;;;;6.78;1.67;;;20.80;78.60;;;;;;5020461;28;20036;-78
2022/07/07 12:26:13;;;;;;;7.90;1.95;;;20.60;79.20;;;;;;5007564;28;20065;-77
2022/07/07 12:28:39;;;;;;;5.70;1.65;;;20.50;80.20;;;;;;5017950;28;20676;-77
2022/07/07 12:31:06;;;;;;;6.07;1.40;;;20.30;81.20;;;;;;5007603;28;20033;-77
2022/07/07 12:33:37;;;;;;;10.85;2.20;;;20.10;81.50;;;;;;5014998;28;20471;-78
2022/07/07 12:36:24;;;;;;;8.77;2.10;;;20.00;81.00;;;;;;5027525;28;20501;-78
2022/07/07 12:38:55;;;;;;;13.93;2.63;;;20.10;82.20;;;;;;5020338;28;20014;-78
2022/07/07 12:41:34;;;;;;;9.95;2.45;;;20.10;81.80;;;;;;5010353;28;20034;-77
2022/07/07 12:44:18;;;;;;;15.05;3.13;;;20.30;79.80;;;;;;5016419;28;20025;-76
2022/07/07 12:46:45;;;;;;;12.70;2.40;;;20.40;79.40;;;;;;5028542;28;20037;-76
2022/07/07 12:49:11;;;;;;;10.35;2.17;;;20.60;77.60;;;;;;5020194;28;20046;-76
2022/07/07 12:51:40;;;;;;;12.55;1.98;;;20.80;77.30;;;;;;5008989;28;20041;-76
2022/07/07 12:54:06;;;;;;;10.82;1.95;;;21.20;76.20;;;;;;5020449;28;20111;-76
2022/07/07 12:56:33;;;;;;;8.80;3.03;;;21.50;73.30;;;;;;5008747;28;20376;-76
2022/07/07 12:58:58;;;;;;;10.48;2.28;;;21.60;71.10;;;;;;5020879;28;20030;-80
2022/07/07 13:01:26;;;;;;;9.40;2.88;;;21.50;71.70;;;;;;5011225;28;20400;-79
2022/07/07 13:03:54;;;;;;;6.78;2.00;;;21.40;70.00;;;;;;5019233;28;20045;-78